createdAt,value
2018-07-31T00:00:25.855Z,6.57
2018-07-31T00:02:54.916Z,5.50
2018-07-31T00:05:23.962Z,5.73
2018-07-31T00:07:53.628Z,5.83
2018-07-31T00:10:22.655Z,5.50
2018-07-31T00:12:51.673Z,4.80
2018-07-31T00:15:20.706Z,5.10
2018-07-31T00:17:49.804Z,5.40
2018-07-31T00:20:18.820Z,5.57
2018-07-31T00:22:47.850Z,5.00
2018-07-31T00:25:16.887Z,5.43
2018-07-31T00:27:45.928Z,6.10
2018-07-31T00:30:14.929Z,5.83
2018-07-31T00:32:44.033Z,5.43
2018-07-31T00:35:13.044Z,5.93
2018-07-31T00:37:42.099Z,5.10
2018-07-31T00:40:11.155Z,6.50
2018-07-31T00:42:40.233Z,6.07
2018-07-31T00:45:09.273Z,5.87
2018-07-31T00:47:38.071Z,5.07
2018-07-31T00:50:06.730Z,6.30
2018-07-31T00:52:35.658Z,5.83
2018-07-31T00:55:04.797Z,5.63
2018-07-31T00:57:33.846Z,5.87
2018-07-31T01:00:02.913Z,5.40
2018-07-31T01:02:31.906Z,5.27
2018-07-31T01:05:00.938Z,6.17
2018-07-31T01:07:29.968Z,5.93
2018-07-31T01:09:58.998Z,5.93
2018-07-31T01:12:28.000Z,5.87
2018-07-31T01:14:56.747Z,5.37
2018-07-31T01:17:25.660Z,6.50
2018-07-31T01:19:54.665Z,6.03
2018-07-31T01:22:23.729Z,5.60
2018-07-31T01:24:53.025Z,5.80
2018-07-31T01:27:22.054Z,6.47
2018-07-31T01:29:51.112Z,5.43
2018-07-31T01:32:20.105Z,5.27
2018-07-31T01:34:49.107Z,6.37
2018-07-31T01:37:18.120Z,6.83
2018-07-31T01:39:47.116Z,6.20
2018-07-31T01:42:15.897Z,5.90
2018-07-31T01:44:44.813Z,6.13
2018-07-31T01:47:14.033Z,6.03
2018-07-31T01:49:43.270Z,5.80
2018-07-31T01:52:12.294Z,6.23
2018-07-31T01:54:41.098Z,6.60
2018-07-31T01:57:09.995Z,7.23
2018-07-31T01:59:39.042Z,6.10
2018-07-31T02:02:08.199Z,6.17
2018-07-31T02:04:37.243Z,6.30
2018-07-31T02:07:06.259Z,6.50
2018-07-31T02:09:35.352Z,6.93
2018-07-31T02:12:04.367Z,8.60
2018-07-31T02:14:33.472Z,5.87
2018-07-31T02:17:02.522Z,6.90
2018-07-31T02:19:31.550Z,6.43
2018-07-31T02:22:00.575Z,6.57
2018-07-31T02:24:29.657Z,6.57
2018-07-31T02:26:58.669Z,6.03
2018-07-31T02:29:33.028Z,6.30
2018-07-31T02:32:01.933Z,6.90
2018-07-31T02:34:30.934Z,6.33
2018-07-31T02:36:59.967Z,5.40
2018-07-31T02:39:29.036Z,6.43
2018-07-31T02:41:58.030Z,7.03
2018-07-31T02:44:27.098Z,6.87
2018-07-31T02:46:56.274Z,5.63
2018-07-31T02:49:25.320Z,7.43
2018-07-31T02:51:54.355Z,6.97
2018-07-31T02:54:23.093Z,7.00
2018-07-31T02:56:52.056Z,7.67
2018-07-31T02:59:21.129Z,6.80
2018-07-31T03:01:50.153Z,7.10
2018-07-31T03:04:19.177Z,6.37
2018-07-31T03:06:48.236Z,6.80
2018-07-31T03:09:17.230Z,7.07
2018-07-31T03:11:46.257Z,6.53
2018-07-31T03:14:14.978Z,6.00
2018-07-31T03:16:43.883Z,6.13
2018-07-31T03:19:12.943Z,7.83
2018-07-31T03:21:41.956Z,6.03
2018-07-31T03:24:10.976Z,6.20
2018-07-31T03:26:40.089Z,6.60
2018-07-31T03:29:09.180Z,6.80
2018-07-31T03:31:38.185Z,6.83
2018-07-31T03:34:07.200Z,6.37
2018-07-31T03:36:36.218Z,7.23
2018-07-31T03:39:06.066Z,6.90
2018-07-31T03:41:34.982Z,6.83
2018-07-31T03:44:04.405Z,7.20
2018-07-31T03:46:33.471Z,6.60
2018-07-31T03:49:02.493Z,7.47
2018-07-31T03:51:31.533Z,6.90
2018-07-31T03:54:00.683Z,7.40
2018-07-31T03:56:29.720Z,7.73
2018-07-31T03:58:58.732Z,7.00
2018-07-31T04:01:27.777Z,6.90
2018-07-31T04:03:56.834Z,6.57
2018-07-31T04:06:25.828Z,7.60
2018-07-31T04:08:54.842Z,6.63
2018-07-31T04:11:23.862Z,6.70
2018-07-31T04:13:52.959Z,6.80
2018-07-31T04:16:22.017Z,6.57
2018-07-31T04:18:51.032Z,6.80
2018-07-31T04:21:20.078Z,8.33
2018-07-31T04:23:49.107Z,6.93
2018-07-31T04:26:18.149Z,7.10
2018-07-31T04:28:47.166Z,7.83
2018-07-31T04:31:16.254Z,6.93
2018-07-31T04:33:45.393Z,7.10
2018-07-31T04:36:14.497Z,7.60
2018-07-31T04:38:43.474Z,7.20
2018-07-31T04:41:12.518Z,7.57
2018-07-31T04:43:41.682Z,7.03
2018-07-31T04:46:10.709Z,7.77
2018-07-31T04:48:39.427Z,6.70
2018-07-31T04:51:08.415Z,8.47
2018-07-31T04:53:37.465Z,7.40
2018-07-31T04:56:06.535Z,7.20
2018-07-31T04:58:36.319Z,7.70
2018-07-31T05:01:05.387Z,8.50
2018-07-31T05:03:34.477Z,7.37
2018-07-31T05:06:03.499Z,7.67
2018-07-31T05:08:32.562Z,7.33
2018-07-31T05:11:08.349Z,7.33
2018-07-31T05:13:37.544Z,6.90
2018-07-31T05:16:06.666Z,7.40
2018-07-31T05:18:35.697Z,7.83
2018-07-31T05:21:04.433Z,8.20
2018-07-31T05:23:33.338Z,8.00
2018-07-31T05:26:02.371Z,7.70
2018-07-31T05:28:31.453Z,6.80
2018-07-31T05:31:00.786Z,7.17
2018-07-31T05:33:29.801Z,7.83
2018-07-31T05:35:58.860Z,7.57
2018-07-31T05:38:27.887Z,7.00
2018-07-31T05:40:56.953Z,7.23
2018-07-31T05:43:25.954Z,8.00
2018-07-31T05:45:54.978Z,7.50
2018-07-31T05:48:24.173Z,6.73
2018-07-31T05:50:53.248Z,7.20
2018-07-31T05:53:22.371Z,7.37
2018-07-31T05:55:51.367Z,8.60
2018-07-31T05:58:20.405Z,7.60
2018-07-31T06:00:49.452Z,7.00
2018-07-31T06:03:18.482Z,7.07
2018-07-31T06:05:47.524Z,7.70
2018-07-31T06:08:16.545Z,6.37
2018-07-31T06:10:45.591Z,6.77
2018-07-31T06:13:14.785Z,6.50
2018-07-31T06:15:44.009Z,7.57
2018-07-31T06:18:13.069Z,6.33
2018-07-31T06:20:42.073Z,7.30
2018-07-31T06:23:10.722Z,7.57
2018-07-31T06:25:39.761Z,7.20
2018-07-31T06:28:08.480Z,7.03
2018-07-31T06:30:37.373Z,7.30
2018-07-31T06:33:06.445Z,6.80
2018-07-31T06:35:35.514Z,7.10
2018-07-31T06:38:04.637Z,7.40
2018-07-31T06:40:33.735Z,6.80
2018-07-31T06:43:02.763Z,6.30
2018-07-31T06:45:31.836Z,6.47
2018-07-31T06:48:00.862Z,6.60
2018-07-31T06:50:29.654Z,6.67
2018-07-31T06:52:58.792Z,6.50
2018-07-31T06:55:27.871Z,6.90
2018-07-31T06:57:56.915Z,7.27
2018-07-31T07:00:25.994Z,6.23
2018-07-31T07:02:55.105Z,6.70
2018-07-31T07:05:24.206Z,7.10
2018-07-31T07:07:53.416Z,7.40
2018-07-31T07:10:22.485Z,6.73
2018-07-31T07:12:51.645Z,7.80
2018-07-31T07:15:20.699Z,6.80
2018-07-31T07:17:49.719Z,7.00
2018-07-31T07:20:19.191Z,6.90
2018-07-31T07:22:48.262Z,7.97
2018-07-31T07:25:17.380Z,7.17
2018-07-31T07:27:46.437Z,6.40
2018-07-31T07:30:15.496Z,6.60
2018-07-31T07:32:44.541Z,7.43
2018-07-31T07:35:13.574Z,7.27
2018-07-31T07:37:42.376Z,6.43
2018-07-31T07:40:11.050Z,7.60
2018-07-31T07:42:39.964Z,7.47
2018-07-31T07:45:09.093Z,7.00
2018-07-31T07:47:38.129Z,6.93
2018-07-31T07:50:07.141Z,6.70
2018-07-31T07:52:36.382Z,6.80
2018-07-31T07:55:05.526Z,6.87
2018-07-31T07:57:34.582Z,6.97
2018-07-31T08:00:05.472Z,6.07
2018-07-31T08:02:35.009Z,6.30
2018-07-31T08:05:04.128Z,7.10
2018-07-31T08:07:33.217Z,6.23
2018-07-31T08:10:02.427Z,6.87
2018-07-31T08:12:31.204Z,5.80
2018-07-31T08:15:00.279Z,5.87
2018-07-31T08:17:29.379Z,6.33
2018-07-31T08:19:58.406Z,6.37
2018-07-31T08:22:27.502Z,5.57
2018-07-31T08:24:56.560Z,6.00
2018-07-31T08:27:26.220Z,6.27
2018-07-31T08:29:55.259Z,5.97
2018-07-31T08:32:24.382Z,6.37
2018-07-31T08:34:53.485Z,6.60
2018-07-31T08:37:22.543Z,6.27
2018-07-31T08:39:51.749Z,5.63
2018-07-31T08:42:20.758Z,6.07
2018-07-31T08:44:49.860Z,5.40
2018-07-31T08:47:19.249Z,5.80
2018-07-31T08:49:48.264Z,5.40
2018-07-31T08:52:17.297Z,6.00
2018-07-31T08:54:46.459Z,5.73
2018-07-31T08:57:15.595Z,6.00
2018-07-31T08:59:44.645Z,5.50
2018-07-31T09:02:13.669Z,5.50
2018-07-31T09:04:42.789Z,5.77
2018-07-31T09:07:11.813Z,5.80
2018-07-31T09:09:40.819Z,5.20
2018-07-31T09:12:09.652Z,5.33
2018-07-31T09:14:38.652Z,4.80
2018-07-31T09:17:07.690Z,4.70
2018-07-31T09:19:36.724Z,4.77
2018-07-31T09:22:05.880Z,5.23
2018-07-31T09:24:35.098Z,4.53
2018-07-31T09:27:04.180Z,4.10
2018-07-31T09:29:33.256Z,4.70
2018-07-31T09:32:02.373Z,4.33
2018-07-31T09:34:35.266Z,3.90
2018-07-31T09:37:04.442Z,4.27
2018-07-31T09:39:33.528Z,3.63
2018-07-31T09:42:02.266Z,4.03
2018-07-31T09:44:31.178Z,3.83
2018-07-31T09:47:00.189Z,4.30
2018-07-31T09:49:29.367Z,4.10
2018-07-31T09:51:58.398Z,4.40
2018-07-31T09:54:27.660Z,4.47
2018-07-31T09:56:56.660Z,4.30
2018-07-31T09:59:25.723Z,4.63
2018-07-31T10:01:54.871Z,4.10
2018-07-31T10:04:23.633Z,3.80
2018-07-31T10:06:52.535Z,3.80
2018-07-31T10:09:21.569Z,4.10
2018-07-31T10:11:50.640Z,3.50
2018-07-31T10:14:19.704Z,4.23
2018-07-31T10:16:48.956Z,4.30
2018-07-31T10:19:18.018Z,4.30
2018-07-31T10:21:47.185Z,4.27
2018-07-31T10:24:16.360Z,3.60
2018-07-31T10:26:45.521Z,4.13
2018-07-31T10:29:14.636Z,3.70
2018-07-31T10:31:43.763Z,4.10
2018-07-31T10:34:12.849Z,4.20
2018-07-31T10:36:41.991Z,3.90
2018-07-31T10:39:10.771Z,3.90
2018-07-31T10:41:39.734Z,3.90
2018-07-31T10:44:08.933Z,3.87
2018-07-31T10:46:37.989Z,4.40
2018-07-31T10:49:07.078Z,3.93
2018-07-31T10:51:36.110Z,3.93
2018-07-31T10:54:05.217Z,4.47
2018-07-31T10:56:34.254Z,4.03
2018-07-31T10:59:03.540Z,4.20
2018-07-31T11:01:34.539Z,4.00
2018-07-31T11:04:03.737Z,3.60
2018-07-31T11:06:32.857Z,3.90
2018-07-31T11:09:01.977Z,3.97
2018-07-31T11:11:31.058Z,3.73
2018-07-31T11:14:00.107Z,3.47
2018-07-31T11:16:29.152Z,3.50
2018-07-31T11:18:58.197Z,3.97
2018-07-31T11:21:27.294Z,3.40
2018-07-31T11:23:56.363Z,3.67
2018-07-31T11:26:25.403Z,4.30
2018-07-31T11:28:54.472Z,3.47
2018-07-31T11:31:23.498Z,4.10
2018-07-31T11:33:52.590Z,4.27
2018-07-31T11:36:21.685Z,4.07
2018-07-31T11:38:50.838Z,3.70
2018-07-31T11:41:19.870Z,4.43
2018-07-31T11:43:48.892Z,4.83
2018-07-31T11:46:17.943Z,4.30
2018-07-31T11:48:47.020Z,4.00
2018-07-31T11:51:16.102Z,3.90
2018-07-31T11:53:45.202Z,3.80
2018-07-31T11:56:14.210Z,3.87
2018-07-31T11:58:43.321Z,3.77
2018-07-31T12:01:12.459Z,4.60
2018-07-31T12:03:41.567Z,3.37
2018-07-31T12:06:10.679Z,3.80
2018-07-31T12:08:39.801Z,4.10
2018-07-31T12:11:08.786Z,3.47
2018-07-31T12:13:37.888Z,3.43
2018-07-31T12:16:07.042Z,3.30
2018-07-31T12:18:36.529Z,3.50
2018-07-31T12:21:05.596Z,3.47
2018-07-31T12:23:34.777Z,3.40
2018-07-31T12:26:03.804Z,3.17
2018-07-31T12:28:32.968Z,3.80
2018-07-31T12:31:01.960Z,3.40
2018-07-31T12:33:30.993Z,3.60
2018-07-31T12:36:00.013Z,4.13
2018-07-31T12:38:29.126Z,3.80
2018-07-31T12:40:58.126Z,3.60
2018-07-31T12:43:27.156Z,3.63
2018-07-31T12:45:56.256Z,3.63
2018-07-31T12:48:25.322Z,4.13
2018-07-31T12:50:54.937Z,4.00
2018-07-31T12:53:23.956Z,3.70
2018-07-31T12:55:53.105Z,4.00
2018-07-31T12:58:22.148Z,3.60
2018-07-31T13:00:51.225Z,3.50
2018-07-31T13:03:20.405Z,3.97
2018-07-31T13:05:49.678Z,5.83
2018-07-31T13:08:19.057Z,3.53
2018-07-31T13:10:47.947Z,3.73
2018-07-31T13:13:16.727Z,3.60
2018-07-31T13:15:45.718Z,3.40
2018-07-31T13:18:14.772Z,3.90
2018-07-31T13:20:43.787Z,3.47
2018-07-31T13:23:12.826Z,3.83
2018-07-31T13:25:41.919Z,3.97
2018-07-31T13:28:10.997Z,3.70
2018-07-31T13:30:40.149Z,4.00
2018-07-31T13:33:09.249Z,3.63
2018-07-31T13:35:38.428Z,4.03
2018-07-31T13:38:07.471Z,3.70
2018-07-31T13:40:36.555Z,3.83
2018-07-31T13:43:05.641Z,3.30
2018-07-31T13:45:34.691Z,3.50
2018-07-31T13:48:03.929Z,4.10
2018-07-31T13:50:33.137Z,4.20
2018-07-31T13:53:02.328Z,3.90
2018-07-31T13:55:31.446Z,3.90
2018-07-31T13:58:00.426Z,3.73
2018-07-31T14:00:29.489Z,3.70
2018-07-31T14:02:58.978Z,3.47
2018-07-31T14:05:28.300Z,3.93
2018-07-31T14:07:57.301Z,4.03
2018-07-31T14:10:26.350Z,3.03
2018-07-31T14:12:55.339Z,3.70
2018-07-31T14:15:24.348Z,3.50
2018-07-31T14:17:53.432Z,3.53
2018-07-31T14:20:22.576Z,6.10
2018-07-31T14:22:51.757Z,3.60
2018-07-31T14:25:21.152Z,3.67
2018-07-31T14:27:50.190Z,3.90
2018-07-31T14:30:19.355Z,3.67
2018-07-31T14:32:48.430Z,4.20
2018-07-31T14:35:17.475Z,3.57
2018-07-31T14:37:46.261Z,4.07
2018-07-31T14:40:15.185Z,3.77
2018-07-31T14:42:44.267Z,5.00
2018-07-31T14:45:13.295Z,3.97
2018-07-31T14:47:42.506Z,3.50
2018-07-31T14:50:11.561Z,4.10
2018-07-31T14:52:40.605Z,4.03
2018-07-31T14:55:09.795Z,3.37
2018-07-31T14:57:38.812Z,3.77
2018-07-31T15:00:08.449Z,3.57
2018-07-31T15:02:37.501Z,4.87
2018-07-31T15:05:06.784Z,3.50
2018-07-31T15:07:35.937Z,3.87
2018-07-31T15:10:05.641Z,3.47
2018-07-31T15:12:34.695Z,3.67
2018-07-31T15:15:03.843Z,3.87
2018-07-31T15:17:33.029Z,3.70
2018-07-31T15:20:02.298Z,3.70
2018-07-31T15:22:31.428Z,4.03
2018-07-31T15:25:00.447Z,4.07
2018-07-31T15:27:29.516Z,3.10
2018-07-31T15:29:58.583Z,3.57
2018-07-31T15:32:27.571Z,3.57
2018-07-31T15:34:56.603Z,2.77
2018-07-31T15:37:25.650Z,2.97
2018-07-31T15:39:54.716Z,3.20
2018-07-31T15:42:23.755Z,3.20
2018-07-31T15:44:52.835Z,3.30
2018-07-31T15:47:21.918Z,3.07
2018-07-31T15:49:50.977Z,3.47
2018-07-31T15:52:20.071Z,3.30
2018-07-31T15:54:49.150Z,3.50
2018-07-31T15:57:18.281Z,3.20
2018-07-31T15:59:47.336Z,3.37
2018-07-31T16:02:16.361Z,3.40
2018-07-31T16:04:45.361Z,3.40
2018-07-31T16:07:14.394Z,2.90
2018-07-31T16:09:43.402Z,3.57
2018-07-31T16:12:12.514Z,3.03
2018-07-31T16:14:41.629Z,3.83
2018-07-31T16:17:10.810Z,10.20
2018-07-31T16:19:39.939Z,3.50
2018-07-31T16:22:09.008Z,3.43
2018-07-31T16:24:38.022Z,3.23
2018-07-31T16:27:07.053Z,3.40
2018-07-31T16:29:36.146Z,2.97
2018-07-31T16:32:05.208Z,3.30
2018-07-31T16:34:34.283Z,3.60
2018-07-31T16:37:03.292Z,3.20
2018-07-31T16:39:32.348Z,3.47
2018-07-31T16:42:01.488Z,3.87
2018-07-31T16:44:30.721Z,5.33
2018-07-31T16:46:59.853Z,4.00
2018-07-31T16:49:28.902Z,4.77
2018-07-31T16:51:57.927Z,6.80
2018-07-31T16:54:26.997Z,5.40
2018-07-31T16:56:55.854Z,3.90
2018-07-31T16:59:24.755Z,4.43
2018-07-31T17:01:53.750Z,3.77
2018-07-31T17:04:22.925Z,5.17
2018-07-31T17:06:51.960Z,4.53
2018-07-31T17:09:20.973Z,4.00
2018-07-31T17:11:50.104Z,3.77
2018-07-31T17:14:19.188Z,3.73
2018-07-31T17:16:48.706Z,3.90
2018-07-31T17:19:17.916Z,3.60
2018-07-31T17:21:46.925Z,3.30
2018-07-31T17:24:16.005Z,3.10
2018-07-31T17:26:45.188Z,3.97
2018-07-31T17:29:14.179Z,3.33
2018-07-31T17:31:43.175Z,3.87
2018-07-31T17:34:12.219Z,3.47
2018-07-31T17:36:41.312Z,3.70
2018-07-31T17:39:11.325Z,3.60
2018-07-31T17:41:41.026Z,3.73
2018-07-31T17:44:09.959Z,3.13
2018-07-31T17:46:38.805Z,3.73
2018-07-31T17:49:07.963Z,3.77
2018-07-31T17:51:37.152Z,3.87
2018-07-31T17:54:06.418Z,3.20
2018-07-31T17:56:35.475Z,4.27
2018-07-31T17:59:04.484Z,19.77
2018-07-31T18:01:33.536Z,3.13
2018-07-31T18:04:02.601Z,3.30
2018-07-31T18:06:31.650Z,2.93
2018-07-31T18:09:00.713Z,3.40
2018-07-31T18:11:29.780Z,2.90
2018-07-31T18:13:58.877Z,3.60
2018-07-31T18:16:27.920Z,4.30
2018-07-31T18:18:56.972Z,4.20
2018-07-31T18:21:26.022Z,3.97
2018-07-31T18:23:55.076Z,4.73
2018-07-31T18:26:24.087Z,3.30
2018-07-31T18:28:53.141Z,2.97
2018-07-31T18:31:22.182Z,3.27
2018-07-31T18:33:51.195Z,3.17
2018-07-31T18:36:20.066Z,3.70
2018-07-31T18:38:48.949Z,2.90
2018-07-31T18:41:17.988Z,3.27
2018-07-31T18:43:46.689Z,2.97
2018-07-31T18:46:15.711Z,2.53
2018-07-31T18:48:44.797Z,3.00
2018-07-31T18:51:13.908Z,3.20
2018-07-31T18:53:42.977Z,2.40
2018-07-31T18:56:12.075Z,2.90
2018-07-31T18:58:41.175Z,3.40
2018-07-31T19:01:10.362Z,3.40
2018-07-31T19:03:39.297Z,3.17
2018-07-31T19:06:08.331Z,3.07
2018-07-31T19:08:37.348Z,2.80
2018-07-31T19:11:06.372Z,3.10
2018-07-31T19:13:35.398Z,2.80
2018-07-31T19:16:04.462Z,3.30
2018-07-31T19:18:33.561Z,3.70
2018-07-31T19:21:02.365Z,3.57
2018-07-31T19:23:31.348Z,2.80
2018-07-31T19:26:00.477Z,2.80
2018-07-31T19:28:29.597Z,3.80
2018-07-31T19:30:58.621Z,3.60
2018-07-31T19:33:27.775Z,3.67
2018-07-31T19:35:56.865Z,3.93
2018-07-31T19:38:25.893Z,4.20
2018-07-31T19:40:55.229Z,3.23
2018-07-31T19:43:23.965Z,4.77
2018-07-31T19:45:53.058Z,2.80
2018-07-31T19:48:23.143Z,3.53
2018-07-31T19:50:52.230Z,2.87
2018-07-31T19:53:21.314Z,3.40
2018-07-31T19:55:50.329Z,2.40
2018-07-31T19:58:19.434Z,3.00
2018-07-31T20:00:48.416Z,3.50
2018-07-31T20:03:17.481Z,2.43
2018-07-31T20:05:46.558Z,2.40
2018-07-31T20:08:15.641Z,2.93
2018-07-31T20:10:44.417Z,2.80
2018-07-31T20:13:13.068Z,2.70
2018-07-31T20:15:42.022Z,3.37
2018-07-31T20:18:10.999Z,2.17
2018-07-31T20:20:40.059Z,2.47
2018-07-31T20:23:09.133Z,2.40
2018-07-31T20:25:38.145Z,1.73
2018-07-31T20:28:07.161Z,2.93
2018-07-31T20:30:36.326Z,2.17
2018-07-31T20:33:05.380Z,2.97
2018-07-31T20:35:34.416Z,2.97
2018-07-31T20:38:03.466Z,2.17
2018-07-31T20:40:32.506Z,2.70
2018-07-31T20:43:01.556Z,2.20
2018-07-31T20:45:30.596Z,2.40
2018-07-31T20:47:59.637Z,2.70
2018-07-31T20:50:28.737Z,3.23
2018-07-31T20:52:57.843Z,2.43
2018-07-31T20:55:26.987Z,2.20
2018-07-31T20:57:56.263Z,1.80
2018-07-31T21:00:25.283Z,2.50
2018-07-31T21:02:54.324Z,2.43
2018-07-31T21:05:23.348Z,2.10
2018-07-31T21:07:52.604Z,2.07
2018-07-31T21:10:21.745Z,2.30
2018-07-31T21:12:50.458Z,2.50
2018-07-31T21:15:19.378Z,2.27
2018-07-31T21:17:48.426Z,2.30
2018-07-31T21:20:17.176Z,3.00
2018-07-31T21:22:46.077Z,2.63
2018-07-31T21:25:15.243Z,2.60
2018-07-31T21:27:44.259Z,2.00
2018-07-31T21:30:13.288Z,2.07
2018-07-31T21:32:42.338Z,2.00
2018-07-31T21:35:11.368Z,2.23
2018-07-31T21:37:40.417Z,2.40
2018-07-31T21:40:09.437Z,2.23
2018-07-31T21:42:38.239Z,2.43
2018-07-31T21:45:07.182Z,2.20
2018-07-31T21:47:36.242Z,1.73
2018-07-31T21:50:05.205Z,2.60
2018-07-31T21:52:34.311Z,2.10
2018-07-31T21:55:03.404Z,2.50
2018-07-31T21:57:32.398Z,2.60
2018-07-31T22:00:01.126Z,1.90
2018-07-31T22:02:30.073Z,2.63
2018-07-31T22:04:58.790Z,2.30
2018-07-31T22:07:27.674Z,2.20
2018-07-31T22:09:56.690Z,2.23
2018-07-31T22:12:25.725Z,1.90
2018-07-31T22:14:54.727Z,1.90
2018-07-31T22:17:24.647Z,2.53
2018-07-31T22:19:53.659Z,1.70
2018-07-31T22:22:22.666Z,2.10
2018-07-31T22:24:51.704Z,1.90
2018-07-31T22:27:20.671Z,2.00
2018-07-31T22:29:49.733Z,1.77
2018-07-31T22:32:18.769Z,1.83
2018-07-31T22:34:47.810Z,1.53
2018-07-31T22:37:17.113Z,1.97
2018-07-31T22:39:46.120Z,2.00
2018-07-31T22:42:15.160Z,1.80
2018-07-31T22:44:44.186Z,2.67
2018-07-31T22:47:13.200Z,2.10
2018-07-31T22:49:42.232Z,2.37
2018-07-31T22:52:11.251Z,2.27
2018-07-31T22:54:40.264Z,2.80
2018-07-31T22:57:09.338Z,2.70
2018-07-31T22:59:38.408Z,2.93
2018-07-31T23:02:07.519Z,3.80
2018-07-31T23:04:36.567Z,3.10
2018-07-31T23:07:05.767Z,3.33
2018-07-31T23:09:34.815Z,3.80
2018-07-31T23:12:04.111Z,3.60
2018-07-31T23:14:33.106Z,3.10
2018-07-31T23:17:02.133Z,4.00
2018-07-31T23:19:31.117Z,4.30
2018-07-31T23:22:00.249Z,3.90
2018-07-31T23:24:29.238Z,3.77
2018-07-31T23:26:58.234Z,4.00
2018-07-31T23:29:27.249Z,3.80
2018-07-31T23:31:56.262Z,3.90
2018-07-31T23:34:25.365Z,3.60
2018-07-31T23:36:54.385Z,3.30
2018-07-31T23:39:23.401Z,3.50
2018-07-31T23:41:52.417Z,3.90
2018-07-31T23:44:21.415Z,4.00
2018-07-31T23:46:50.442Z,4.20
2018-07-31T23:49:19.538Z,4.20
2018-07-31T23:51:48.549Z,4.03
2018-07-31T23:54:24.326Z,4.67
2018-07-31T23:56:53.557Z,3.93
2018-07-31T23:59:22.576Z,4.47
